createdAt,value
2023-05-24T00:00:12.733Z,10.49
2023-05-24T00:02:43.031Z,10.53
2023-05-24T00:05:10.948Z,10.60
2023-05-24T00:07:38.355Z,10.49
2023-05-24T00:10:06.310Z,10.54
2023-05-24T00:12:33.233Z,10.61
2023-05-24T00:15:00.181Z,10.60
2023-05-24T00:17:27.621Z,10.58
2023-05-24T00:19:54.462Z,10.62
2023-05-24T00:22:21.718Z,10.61
2023-05-24T00:24:48.791Z,10.54
2023-05-24T00:27:16.160Z,10.52
2023-05-24T00:29:43.100Z,10.56
2023-05-24T00:32:10.031Z,10.48
2023-05-24T00:34:36.862Z,10.51
2023-05-24T00:37:07.691Z,10.54
2023-05-24T00:39:34.393Z,10.52
2023-05-24T00:42:01.123Z,10.53
2023-05-24T00:44:31.355Z,10.54
2023-05-24T00:46:58.578Z,10.47
2023-05-24T00:49:25.630Z,10.44
2023-05-24T00:51:54.086Z,10.54
2023-05-24T00:54:21.116Z,10.53
2023-05-24T00:56:48.404Z,10.49
2023-05-24T00:59:15.282Z,10.44
2023-05-24T01:01:42.904Z,10.41
2023-05-24T01:04:09.724Z,10.42
2023-05-24T01:06:47.822Z,10.37
2023-05-24T01:09:25.983Z,10.44
2023-05-24T01:12:12.473Z,10.43
2023-05-24T01:14:57.959Z,10.44
2023-05-24T01:17:37.538Z,10.40
2023-05-24T01:20:11.123Z,10.45
2023-05-24T01:23:28.952Z,10.47
2023-05-24T01:26:13.803Z,10.44
2023-05-24T01:28:43.277Z,10.34
2023-05-24T01:31:12.736Z,10.29
2023-05-24T01:33:42.862Z,10.31
2023-05-24T01:36:09.819Z,10.42
2023-05-24T01:38:37.929Z,10.47
2023-05-24T01:41:13.119Z,10.37
2023-05-24T01:43:48.731Z,10.44
2023-05-24T01:46:38.044Z,10.36
2023-05-24T01:49:20.619Z,10.46
2023-05-24T01:52:08.570Z,10.37
2023-05-24T01:54:38.985Z,10.34
2023-05-24T01:57:08.999Z,10.41
2023-05-24T01:59:37.983Z,10.36
2023-05-24T02:02:05.039Z,10.42
2023-05-24T02:04:32.037Z,10.40
2023-05-24T02:06:58.730Z,10.34
2023-05-24T02:09:25.429Z,10.40
2023-05-24T02:11:52.175Z,10.31
2023-05-24T02:14:19.835Z,10.39
2023-05-24T02:16:47.332Z,10.43
2023-05-24T02:19:14.646Z,10.34
2023-05-24T02:21:41.468Z,10.36
2023-05-24T02:24:11.241Z,10.35
2023-05-24T02:26:38.743Z,10.35
2023-05-24T02:29:08.043Z,10.35
2023-05-24T02:31:34.796Z,10.39
2023-05-24T02:34:01.666Z,10.25
2023-05-24T02:36:28.459Z,10.28
2023-05-24T02:38:55.132Z,10.30
2023-05-24T02:41:22.201Z,10.28
2023-05-24T02:43:48.964Z,10.26
2023-05-24T02:46:15.959Z,10.31
2023-05-24T02:48:42.734Z,10.31
2023-05-24T02:51:09.481Z,10.31
2023-05-24T02:53:36.278Z,10.31
2023-05-24T02:56:02.962Z,10.31
2023-05-24T02:58:30.465Z,10.26
2023-05-24T03:00:57.174Z,10.27
2023-05-24T03:03:24.580Z,10.22
2023-05-24T03:05:51.374Z,10.24
2023-05-24T03:08:18.060Z,10.28
2023-05-24T03:10:47.593Z,10.29
2023-05-24T03:13:14.430Z,10.30
2023-05-24T03:15:41.196Z,10.29
2023-05-24T03:18:07.967Z,10.16
2023-05-24T03:20:34.777Z,10.21
2023-05-24T03:23:01.709Z,10.22
2023-05-24T03:25:28.564Z,10.26
2023-05-24T03:27:55.462Z,10.26
2023-05-24T03:30:22.149Z,10.29
2023-05-24T03:32:48.969Z,10.31
2023-05-24T03:35:15.675Z,10.28
2023-05-24T03:37:42.449Z,10.39
2023-05-24T03:40:09.533Z,10.41
2023-05-24T03:42:36.509Z,10.37
2023-05-24T03:45:03.904Z,10.33
2023-05-24T03:47:33.255Z,10.32
2023-05-24T03:50:00.016Z,10.29
2023-05-24T03:52:26.995Z,10.33
2023-05-24T03:54:53.827Z,10.38
2023-05-24T03:57:20.671Z,10.35
2023-05-24T03:59:47.370Z,10.40
2023-05-24T04:02:14.614Z,10.41
2023-05-24T04:04:41.575Z,10.35
2023-05-24T04:07:11.939Z,10.40
2023-05-24T04:09:38.683Z,10.42
2023-05-24T04:12:06.817Z,10.39
2023-05-24T04:14:33.543Z,10.43
2023-05-24T04:17:02.402Z,10.51
2023-05-24T04:19:29.640Z,10.48
2023-05-24T04:21:57.672Z,10.50
2023-05-24T04:24:24.344Z,10.54
2023-05-24T04:26:51.697Z,10.53
2023-05-24T04:29:18.926Z,10.59
2023-05-24T04:31:45.835Z,10.63
2023-05-24T04:34:14.323Z,10.54
2023-05-24T04:36:41.444Z,10.57
2023-05-24T04:39:08.204Z,10.64
2023-05-24T04:41:38.688Z,10.76
2023-05-24T04:44:05.586Z,10.74
2023-05-24T04:46:36.100Z,10.81
2023-05-24T04:49:03.075Z,10.86
2023-05-24T04:51:29.820Z,10.86
2023-05-24T04:53:56.601Z,10.85
2023-05-24T04:56:23.302Z,10.89
2023-05-24T04:58:50.268Z,10.83
2023-05-24T05:01:16.991Z,10.85
2023-05-24T05:03:46.062Z,10.81
2023-05-24T05:06:12.879Z,10.87
2023-05-24T05:08:39.640Z,10.88
2023-05-24T05:11:06.449Z,10.91
2023-05-24T05:13:33.251Z,10.98
2023-05-24T05:15:59.959Z,11.05
2023-05-24T05:18:26.667Z,11.23
2023-05-24T05:20:53.415Z,11.24
2023-05-24T05:23:20.127Z,11.42
2023-05-24T05:25:46.812Z,11.55
2023-05-24T05:28:13.744Z,11.38
2023-05-24T05:30:40.634Z,11.47
2023-05-24T05:33:07.594Z,11.48
2023-05-24T05:35:34.406Z,11.39
2023-05-24T05:38:01.506Z,11.54
2023-05-24T05:40:28.225Z,11.62
2023-05-24T05:42:54.955Z,11.44
2023-05-24T05:45:21.744Z,11.41
2023-05-24T05:47:48.548Z,11.25
2023-05-24T05:50:15.470Z,11.37
2023-05-24T05:52:42.222Z,11.34
2023-05-24T05:55:09.371Z,11.35
2023-05-24T05:57:36.091Z,11.32
2023-05-24T06:00:03.759Z,11.30
2023-05-24T06:02:33.427Z,11.29
2023-05-24T06:05:00.462Z,11.29
2023-05-24T06:07:27.260Z,11.55
2023-05-24T06:09:57.309Z,11.62
2023-05-24T06:12:24.008Z,11.59
2023-05-24T06:14:50.769Z,11.65
2023-05-24T06:17:18.579Z,11.77
2023-05-24T06:19:45.732Z,11.82
2023-05-24T06:22:12.727Z,11.83
2023-05-24T06:24:40.022Z,11.91
2023-05-24T06:27:06.770Z,12.11
2023-05-24T06:29:33.512Z,12.34
2023-05-24T06:32:00.329Z,12.47
2023-05-24T06:34:27.437Z,12.44
2023-05-24T06:36:54.131Z,12.67
2023-05-24T06:39:21.004Z,12.86
2023-05-24T06:41:48.235Z,12.39
2023-05-24T06:44:16.392Z,12.35
2023-05-24T06:46:43.270Z,12.16
2023-05-24T06:49:10.130Z,12.00
2023-05-24T06:51:38.111Z,12.23
2023-05-24T06:54:04.895Z,12.47
2023-05-24T06:56:35.661Z,12.45
2023-05-24T06:59:02.544Z,12.43
2023-05-24T07:01:29.700Z,12.26
2023-05-24T07:03:56.523Z,12.20
2023-05-24T07:06:23.288Z,12.12
2023-05-24T07:08:50.104Z,12.09
2023-05-24T07:11:16.953Z,12.34
2023-05-24T07:13:43.729Z,12.20
2023-05-24T07:16:11.733Z,12.35
2023-05-24T07:18:38.867Z,12.37
2023-05-24T07:21:05.568Z,12.36
2023-05-24T07:23:32.507Z,12.37
2023-05-24T07:26:01.602Z,12.42
2023-05-24T07:28:28.358Z,12.24
2023-05-24T07:30:55.175Z,12.36
2023-05-24T07:33:22.062Z,12.43
2023-05-24T07:35:51.717Z,12.52
2023-05-24T07:38:18.983Z,12.66
2023-05-24T07:40:45.812Z,12.57
2023-05-24T07:43:12.777Z,12.85
2023-05-24T07:45:39.575Z,12.87
2023-05-24T07:48:06.747Z,13.11
2023-05-24T07:50:33.589Z,13.23
2023-05-24T07:53:00.441Z,13.18
2023-05-24T07:55:28.109Z,12.97
2023-05-24T07:57:54.948Z,12.87
2023-05-24T08:00:21.888Z,12.94
2023-05-24T08:02:48.868Z,13.24
2023-05-24T08:05:16.956Z,13.41
2023-05-24T08:07:43.897Z,13.66
2023-05-24T08:10:12.750Z,13.61
2023-05-24T08:12:42.509Z,13.70
2023-05-24T08:15:09.932Z,14.09
2023-05-24T08:17:38.880Z,14.20
2023-05-24T08:20:09.849Z,14.26
2023-05-24T08:22:37.728Z,14.72
2023-05-24T08:25:05.052Z,14.86
2023-05-24T08:27:31.914Z,14.65
2023-05-24T08:29:59.037Z,14.46
2023-05-24T08:32:25.923Z,14.31
2023-05-24T08:34:58.140Z,14.81
2023-05-24T08:37:35.154Z,14.28
2023-05-24T08:40:01.900Z,14.35
2023-05-24T08:42:29.315Z,14.81
2023-05-24T08:45:08.427Z,14.71
2023-05-24T08:47:36.903Z,14.57
2023-05-24T08:50:05.380Z,14.34
2023-05-24T08:52:32.946Z,14.44
2023-05-24T08:55:00.171Z,14.70
2023-05-24T08:57:27.790Z,14.69
2023-05-24T08:59:56.213Z,14.61
2023-05-24T09:02:23.743Z,14.74
2023-05-24T09:04:53.108Z,15.00
2023-05-24T09:07:24.698Z,14.80
2023-05-24T09:10:01.328Z,14.50
2023-05-24T09:12:37.328Z,14.10
2023-05-24T09:15:06.945Z,14.16
2023-05-24T09:17:35.636Z,14.92
2023-05-24T09:20:06.939Z,15.36
2023-05-24T09:22:35.776Z,15.64
2023-05-24T09:25:05.855Z,16.40
2023-05-24T09:27:35.647Z,16.07
2023-05-24T09:30:05.424Z,16.51
2023-05-24T09:32:33.230Z,15.78
2023-05-24T09:35:00.154Z,16.56
2023-05-24T09:37:32.127Z,16.17
2023-05-24T09:40:00.071Z,16.56
2023-05-24T09:42:31.176Z,16.12
2023-05-24T09:45:06.836Z,15.97
2023-05-24T09:47:35.104Z,15.87
2023-05-24T09:50:03.466Z,16.16
2023-05-24T09:52:34.054Z,16.73
2023-05-24T09:55:15.614Z,16.75
2023-05-24T09:57:50.839Z,16.69
2023-05-24T10:00:27.188Z,17.38
2023-05-24T10:03:06.796Z,17.43
2023-05-24T10:05:35.122Z,16.82
2023-05-24T10:08:05.033Z,16.64
2023-05-24T10:10:33.446Z,17.34
2023-05-24T10:13:01.648Z,17.99
2023-05-24T10:15:29.711Z,17.63
2023-05-24T10:17:58.112Z,19.06
2023-05-24T10:20:25.312Z,18.72
2023-05-24T10:22:59.370Z,17.69
2023-05-24T10:25:29.992Z,17.23
2023-05-24T10:28:10.356Z,16.56
2023-05-24T10:31:26.917Z,16.12
2023-05-24T10:36:47.856Z,17.31
2023-05-24T10:39:21.512Z,18.85
2023-05-24T10:41:48.489Z,18.53
2023-05-24T10:41:49.918Z,16.37
2023-05-24T10:44:19.336Z,18.61
2023-05-24T10:47:10.555Z,17.86
2023-05-24T10:49:38.995Z,17.50
2023-05-24T10:52:10.286Z,17.08
2023-05-24T10:54:39.874Z,17.05
2023-05-24T10:57:08.781Z,18.60
2023-05-24T10:59:38.849Z,18.09
2023-05-24T11:02:14.150Z,18.41
2023-05-24T11:04:43.556Z,19.28
2023-05-24T11:07:11.604Z,19.02
2023-05-24T11:09:52.817Z,17.75
2023-05-24T11:12:23.794Z,17.89
2023-05-24T11:14:53.847Z,17.28
2023-05-24T11:17:23.207Z,17.11
2023-05-24T11:19:52.986Z,16.78
2023-05-24T11:22:22.452Z,17.89
2023-05-24T11:24:49.285Z,17.67
2023-05-24T11:27:16.476Z,18.56
2023-05-24T11:29:45.232Z,18.27
2023-05-24T11:32:20.566Z,19.40
2023-05-24T11:34:48.260Z,19.48
2023-05-24T11:37:18.060Z,19.24
2023-05-24T11:39:51.505Z,19.50
2023-05-24T11:42:18.418Z,19.81
2023-05-24T11:44:48.618Z,19.69
2023-05-24T11:47:15.363Z,19.10
2023-05-24T11:49:42.051Z,18.41
2023-05-24T11:52:08.976Z,19.25
2023-05-24T11:54:37.374Z,19.28
2023-05-24T11:57:05.559Z,18.88
2023-05-24T11:59:32.357Z,19.58
2023-05-24T12:02:00.242Z,20.59
2023-05-24T12:04:29.232Z,20.25
2023-05-24T12:06:56.482Z,19.66
2023-05-24T12:09:23.759Z,19.28
2023-05-24T12:11:51.656Z,18.92
2023-05-24T12:14:19.481Z,18.55
2023-05-24T12:16:47.226Z,18.43
2023-05-24T12:19:33.301Z,18.71
2023-05-24T12:22:05.085Z,19.99
2023-05-24T12:24:32.850Z,19.06
2023-05-24T12:27:02.191Z,19.31
2023-05-24T12:29:41.744Z,20.13
2023-05-24T12:32:15.291Z,20.53
2023-05-24T12:34:43.816Z,20.52
2023-05-24T12:37:16.042Z,20.81
2023-05-24T12:39:44.492Z,19.87
2023-05-24T12:42:13.440Z,19.18
2023-05-24T12:44:40.775Z,18.84
2023-05-24T12:47:08.993Z,18.84
2023-05-24T12:49:36.362Z,18.51
2023-05-24T12:52:03.092Z,19.05
2023-05-24T12:54:30.333Z,19.78
2023-05-24T12:56:59.991Z,20.37
2023-05-24T12:59:28.778Z,20.23
2023-05-24T13:01:56.343Z,19.79
2023-05-24T13:04:24.439Z,19.67
2023-05-24T13:06:51.681Z,19.06
2023-05-24T13:09:21.431Z,19.15
2023-05-24T13:11:48.272Z,19.91
2023-05-24T13:14:16.743Z,20.80
2023-05-24T13:16:44.378Z,21.14
2023-05-24T13:19:11.940Z,20.61
2023-05-24T13:21:39.043Z,20.83
2023-05-24T13:24:06.656Z,21.25
2023-05-24T13:26:38.201Z,20.65
2023-05-24T13:29:32.210Z,20.92
2023-05-24T13:31:55.476Z,21.26
2023-05-24T13:34:25.705Z,20.50
2023-05-24T13:36:55.565Z,21.06
2023-05-24T13:39:22.391Z,20.34
2023-05-24T13:41:51.444Z,19.53
2023-05-24T13:44:18.438Z,19.18
2023-05-24T13:46:46.011Z,19.10
2023-05-24T13:49:13.021Z,18.77
2023-05-24T13:51:40.331Z,19.12
2023-05-24T13:54:07.963Z,18.96
2023-05-24T13:56:35.826Z,19.46
2023-05-24T13:59:04.427Z,19.59
2023-05-24T14:01:31.988Z,19.26
2023-05-24T14:03:59.988Z,19.19
2023-05-24T14:06:26.697Z,19.14
2023-05-24T14:08:53.906Z,19.24
2023-05-24T14:11:22.359Z,18.90
2023-05-24T14:16:18.940Z,20.36
2023-05-24T14:18:46.005Z,19.94
2023-05-24T14:21:12.763Z,19.57
2023-05-24T14:23:39.630Z,20.01
2023-05-24T14:26:06.760Z,19.79
2023-05-24T14:28:33.515Z,20.13
2023-05-24T14:31:00.252Z,19.06
2023-05-24T14:33:27.029Z,19.48
2023-05-24T14:35:55.356Z,19.71
2023-05-24T14:38:23.933Z,19.26
2023-05-24T14:40:51.258Z,18.94
2023-05-24T14:43:18.366Z,19.34
2023-05-24T14:45:45.394Z,19.63
2023-05-24T14:48:12.828Z,19.93
2023-05-24T14:50:41.069Z,20.16
2023-05-24T14:53:14.397Z,20.00
2023-05-24T14:55:42.824Z,20.41
2023-05-24T14:58:13.843Z,20.55
2023-05-24T15:00:42.026Z,20.08
2023-05-24T15:03:13.027Z,19.87
2023-05-24T15:05:41.386Z,20.02
2023-05-24T15:08:08.872Z,19.22
2023-05-24T15:10:35.600Z,19.08
2023-05-24T15:13:03.880Z,19.08
2023-05-24T15:15:31.356Z,18.93
2023-05-24T15:17:59.897Z,19.15
2023-05-24T15:20:26.996Z,19.49
2023-05-24T15:22:53.984Z,19.69
2023-05-24T15:25:21.115Z,19.99
2023-05-24T15:27:48.207Z,20.31
2023-05-24T15:30:17.275Z,19.59
2023-05-24T15:32:45.770Z,20.04
2023-05-24T15:35:12.873Z,19.37
2023-05-24T15:37:40.486Z,19.10
2023-05-24T15:40:10.283Z,19.20
2023-05-24T15:42:37.033Z,18.65
2023-05-24T15:45:04.019Z,18.59
2023-05-24T15:47:36.284Z,18.27
2023-05-24T15:50:04.118Z,18.74
2023-05-24T15:52:33.671Z,19.06
2023-05-24T15:55:00.566Z,19.25
2023-05-24T15:57:27.452Z,19.51
2023-05-24T15:59:54.179Z,19.28
2023-05-24T16:02:21.556Z,18.96
2023-05-24T16:04:48.475Z,18.94
2023-05-24T16:07:15.576Z,19.24
2023-05-24T16:09:42.362Z,19.29
2023-05-24T16:12:10.123Z,19.93
2023-05-24T16:14:36.889Z,19.22
2023-05-24T16:17:05.540Z,19.47
2023-05-24T16:19:32.520Z,19.19
2023-05-24T16:21:59.246Z,19.67
2023-05-24T16:24:27.086Z,19.73
2023-05-24T16:26:53.895Z,19.20
2023-05-24T16:29:21.354Z,19.32
2023-05-24T16:31:48.355Z,19.50
2023-05-24T16:34:16.431Z,19.25
2023-05-24T16:36:45.781Z,19.66
2023-05-24T16:39:12.529Z,19.33
2023-05-24T16:41:41.704Z,19.71
2023-05-24T16:44:08.578Z,19.28
2023-05-24T16:46:36.554Z,19.29
2023-05-24T16:49:03.937Z,18.78
2023-05-24T16:51:30.653Z,18.94
2023-05-24T16:53:57.472Z,19.19
2023-05-24T16:56:24.155Z,19.13
2023-05-24T16:59:01.550Z,19.31
2023-05-24T17:01:28.586Z,19.34
2023-05-24T17:03:55.429Z,19.07
2023-05-24T17:06:22.411Z,19.15
2023-05-24T17:08:49.146Z,19.18
2023-05-24T17:11:17.078Z,19.16
2023-05-24T17:13:43.886Z,18.70
2023-05-24T17:16:11.789Z,18.48
2023-05-24T17:18:38.709Z,18.44
2023-05-24T17:21:06.774Z,18.28
2023-05-24T17:23:36.575Z,18.37
2023-05-24T17:26:04.038Z,18.51
2023-05-24T17:28:31.109Z,18.08
2023-05-24T17:31:00.799Z,18.06
2023-05-24T17:33:29.588Z,17.66
2023-05-24T17:35:57.137Z,17.62
2023-05-24T17:38:28.603Z,17.25
2023-05-24T17:40:59.708Z,16.96
2023-05-24T17:43:32.740Z,16.92
2023-05-24T17:46:06.954Z,16.61
2023-05-24T17:48:36.140Z,16.65
2023-05-24T17:51:05.838Z,16.67
2023-05-24T17:53:34.945Z,16.67
2023-05-24T17:56:02.808Z,16.63
2023-05-24T17:58:37.223Z,16.68
2023-05-24T18:01:06.104Z,16.64
2023-05-24T18:03:37.704Z,16.35
2023-05-24T18:06:07.049Z,16.37
2023-05-24T18:08:37.164Z,16.29
2023-05-24T18:11:08.697Z,16.16
2023-05-24T18:13:40.505Z,16.09
2023-05-24T18:16:09.375Z,15.90
2023-05-24T18:18:37.748Z,15.88
2023-05-24T18:21:05.422Z,15.80
2023-05-24T18:23:37.253Z,15.65
2023-05-24T18:26:08.167Z,15.57
2023-05-24T18:28:37.656Z,15.62
2023-05-24T18:31:08.300Z,15.59
2023-05-24T18:33:35.198Z,15.59
2023-05-24T18:36:04.517Z,15.49
2023-05-24T18:38:34.497Z,15.42
2023-05-24T18:41:03.505Z,15.30
2023-05-24T18:43:32.362Z,15.21
2023-05-24T18:45:59.081Z,15.15
2023-05-24T18:48:26.011Z,15.06
2023-05-24T18:50:53.477Z,14.99
2023-05-24T18:53:20.310Z,14.78
2023-05-24T18:55:49.795Z,14.79
2023-05-24T18:58:16.503Z,14.63
2023-05-24T19:00:43.408Z,14.51
2023-05-24T19:03:12.144Z,14.55
2023-05-24T19:05:42.590Z,14.46
2023-05-24T19:08:10.651Z,14.34
2023-05-24T19:10:37.401Z,14.29
2023-05-24T19:13:06.173Z,14.13
2023-05-24T19:15:35.521Z,14.14
2023-05-24T19:18:02.890Z,14.06
2023-05-24T19:20:29.739Z,14.05
2023-05-24T19:22:56.644Z,13.94
2023-05-24T19:25:23.564Z,13.98
2023-05-24T19:27:59.246Z,13.83
2023-05-24T19:30:27.468Z,13.73
2023-05-24T19:32:54.453Z,13.70
2023-05-24T19:35:21.296Z,13.68
2023-05-24T19:37:48.031Z,13.60
2023-05-24T19:40:14.912Z,13.51
2023-05-24T19:42:41.670Z,13.48
2023-05-24T19:45:09.606Z,13.37
2023-05-24T19:47:36.553Z,13.34
2023-05-24T19:50:03.652Z,13.27
2023-05-24T19:52:30.376Z,13.22
2023-05-24T19:54:57.190Z,13.15
2023-05-24T19:57:24.913Z,13.16
2023-05-24T19:59:51.921Z,13.06
2023-05-24T20:02:21.405Z,12.94
2023-05-24T20:04:49.078Z,12.98
2023-05-24T20:07:15.901Z,12.96
2023-05-24T20:09:45.532Z,12.89
2023-05-24T20:12:12.408Z,12.87
2023-05-24T20:14:39.163Z,12.75
2023-05-24T20:17:05.969Z,12.76
2023-05-24T20:19:32.741Z,12.69
2023-05-24T20:21:59.474Z,12.64
2023-05-24T20:24:26.182Z,12.60
2023-05-24T20:26:55.802Z,12.61
2023-05-24T20:29:22.487Z,12.48
2023-05-24T20:31:49.275Z,12.54
2023-05-24T20:34:16.031Z,12.48
2023-05-24T20:36:43.875Z,12.44
2023-05-24T20:39:10.812Z,12.40
2023-05-24T20:41:37.539Z,12.35
2023-05-24T20:44:04.279Z,12.27
2023-05-24T20:46:33.896Z,12.17
2023-05-24T20:49:01.061Z,12.26
2023-05-24T20:51:27.769Z,12.17
2023-05-24T20:53:55.973Z,12.10
2023-05-24T20:56:23.208Z,12.03
2023-05-24T20:58:54.373Z,12.14
2023-05-24T21:01:21.408Z,12.08
2023-05-24T21:03:48.361Z,12.04
2023-05-24T21:06:15.265Z,12.05
2023-05-24T21:08:42.950Z,12.01
2023-05-24T21:11:09.713Z,11.97
2023-05-24T21:13:36.487Z,11.91
2023-05-24T21:16:03.282Z,11.97
2023-05-24T21:18:33.391Z,11.97
2023-05-24T21:21:00.346Z,11.99
2023-05-24T21:23:27.062Z,12.00
2023-05-24T21:25:53.792Z,12.00
2023-05-24T21:28:20.654Z,11.91
2023-05-24T21:30:47.434Z,11.87
2023-05-24T21:33:14.194Z,11.86
2023-05-24T21:35:41.088Z,11.87
2023-05-24T21:38:07.890Z,11.81
2023-05-24T21:40:34.671Z,11.81
2023-05-24T21:43:01.362Z,11.87
2023-05-24T21:45:28.168Z,11.88
2023-05-24T21:47:54.910Z,11.90
2023-05-24T21:50:21.716Z,11.85
2023-05-24T21:52:50.415Z,11.94
2023-05-24T21:55:17.316Z,11.98
2023-05-24T21:57:44.129Z,11.95
2023-05-24T22:00:14.549Z,11.89
2023-05-24T22:02:43.253Z,11.92
2023-05-24T22:05:10.079Z,11.87
2023-05-24T22:07:37.555Z,11.89
2023-05-24T22:10:05.708Z,11.92
2023-05-24T22:12:32.677Z,11.91
2023-05-24T22:15:01.416Z,12.01
2023-05-24T22:17:33.415Z,12.00
2023-05-24T22:20:04.900Z,11.98
2023-05-24T22:22:31.982Z,12.01
2023-05-24T22:25:02.200Z,12.00
2023-05-24T22:27:29.589Z,11.97
2023-05-24T22:29:56.377Z,11.95
2023-05-24T22:32:23.229Z,11.98
2023-05-24T22:34:50.027Z,11.99
2023-05-24T22:37:17.721Z,11.98
2023-05-24T22:39:45.444Z,11.98
2023-05-24T22:42:13.493Z,11.99
2023-05-24T22:44:40.155Z,11.91
2023-05-24T22:47:12.015Z,11.97
2023-05-24T22:49:38.699Z,11.96
2023-05-24T22:52:06.993Z,11.94
2023-05-24T22:54:33.672Z,12.00
2023-05-24T22:57:00.955Z,11.99
2023-05-24T22:59:28.041Z,11.98
2023-05-24T23:01:55.690Z,11.95
2023-05-24T23:04:22.507Z,11.96
2023-05-24T23:06:53.166Z,12.03
2023-05-24T23:09:33.847Z,11.99
2023-05-24T23:12:08.013Z,11.95
2023-05-24T23:14:39.854Z,11.92
2023-05-24T23:17:15.815Z,11.94
2023-05-24T23:19:43.278Z,11.86
2023-05-24T23:22:13.998Z,11.91
2023-05-24T23:24:44.455Z,11.92
2023-05-24T23:27:11.300Z,11.85
2023-05-24T23:29:40.818Z,11.88
2023-05-24T23:32:10.164Z,11.81
2023-05-24T23:34:37.243Z,11.75
2023-05-24T23:37:05.111Z,11.80
2023-05-24T23:39:31.995Z,11.74
2023-05-24T23:41:58.753Z,11.67
2023-05-24T23:44:25.843Z,11.69
2023-05-24T23:46:53.655Z,11.69
2023-05-24T23:49:20.553Z,11.65
2023-05-24T23:51:47.470Z,11.61
2023-05-24T23:54:19.032Z,11.59
2023-05-24T23:56:46.116Z,11.57
2023-05-24T23:59:15.252Z,11.48
